sensor_id;sensor_type;location;lat;lon;timestamp;P1;P2;P0
74880;PMS5003;63427;49.654;6.596;2023-02-26T00:01:50;8;6;
74880;PMS5003;63427;49.654;6.596;2023-02-26T00:04:16;10;8;
74880;PMS5003;63427;49.654;6.596;2023-02-26T00:06:41;10;10;
74880;PMS5003;63427;49.654;6.596;2023-02-26T00:09:06;7;7;
74880;PMS5003;63427;49.654;6.596;2023-02-26T00:11:31;6;6;
74880;PMS5003;63427;49.654;6.596;2023-02-26T00:13:57;7;7;
74880;PMS5003;63427;49.654;6.596;2023-02-26T00:16:24;6;6;
74880;PMS5003;63427;49.654;6.596;2023-02-26T00:18:48;8;7;
74880;PMS5003;63427;49.654;6.596;2023-02-26T00:21:14;7;6;
74880;PMS5003;63427;49.654;6.596;2023-02-26T00:23:38;7;7;
74880;PMS5003;63427;49.654;6.596;2023-02-26T00:26:03;6;6;
74880;PMS5003;63427;49.654;6.596;2023-02-26T00:28:28;7;7;
74880;PMS5003;63427;49.654;6.596;2023-02-26T00:30:54;8;8;
74880;PMS5003;63427;49.654;6.596;2023-02-26T00:33:19;8;8;
74880;PMS5003;63427;49.654;6.596;2023-02-26T00:35:44;7;7;
74880;PMS5003;63427;49.654;6.596;2023-02-26T00:38:10;6;5;
74880;PMS5003;63427;49.654;6.596;2023-02-26T00:40:36;5;5;
74880;PMS5003;63427;49.654;6.596;2023-02-26T00:43:00;6;5;
74880;PMS5003;63427;49.654;6.596;2023-02-26T00:45:25;6;6;
74880;PMS5003;63427;49.654;6.596;2023-02-26T00:47:52;10;7;
74880;PMS5003;63427;49.654;6.596;2023-02-26T00:50:17;7;7;
74880;PMS5003;63427;49.654;6.596;2023-02-26T00:52:43;7;7;
74880;PMS5003;63427;49.654;6.596;2023-02-26T00:55:06;6;6;
74880;PMS5003;63427;49.654;6.596;2023-02-26T00:57:32;5;5;
74880;PMS5003;63427;49.654;6.596;2023-02-26T00:59:57;7;6;
74880;PMS5003;63427;49.654;6.596;2023-02-26T01:02:22;7;6;
74880;PMS5003;63427;49.654;6.596;2023-02-26T01:04:48;14;12;
74880;PMS5003;63427;49.654;6.596;2023-02-26T01:07:13;6;6;
74880;PMS5003;63427;49.654;6.596;2023-02-26T01:09:38;7;7;
74880;PMS5003;63427;49.654;6.596;2023-02-26T01:12:05;8;7;
74880;PMS5003;63427;49.654;6.596;2023-02-26T01:14:29;6;6;
74880;PMS5003;63427;49.654;6.596;2023-02-26T01:16:55;9;7;
74880;PMS5003;63427;49.654;6.596;2023-02-26T01:19:23;6;6;
74880;PMS5003;63427;49.654;6.596;2023-02-26T01:21:45;7;7;
74880;PMS5003;63427;49.654;6.596;2023-02-26T01:24:10;7;7;
74880;PMS5003;63427;49.654;6.596;2023-02-26T01:26:35;7;7;
74880;PMS5003;63427;49.654;6.596;2023-02-26T01:29:00;7;7;
74880;PMS5003;63427;49.654;6.596;2023-02-26T01:31:31;6;5;
74880;PMS5003;63427;49.654;6.596;2023-02-26T01:33:53;7;7;
74880;PMS5003;63427;49.654;6.596;2023-02-26T01:36:17;7;7;
74880;PMS5003;63427;49.654;6.596;2023-02-26T01:38:42;7;7;
74880;PMS5003;63427;49.654;6.596;2023-02-26T01:41:12;3;3;
74880;PMS5003;63427;49.654;6.596;2023-02-26T01:43:35;8;7;
74880;PMS5003;63427;49.654;6.596;2023-02-26T01:45:59;7;7;
74880;PMS5003;63427;49.654;6.596;2023-02-26T01:48:28;5;3;
74880;PMS5003;63427;49.654;6.596;2023-02-26T01:50:48;7;6;
74880;PMS5003;63427;49.654;6.596;2023-02-26T01:53:16;7;6;
74880;PMS5003;63427;49.654;6.596;2023-02-26T01:55:40;7;7;
74880;PMS5003;63427;49.654;6.596;2023-02-26T01:58:04;6;6;
74880;PMS5003;63427;49.654;6.596;2023-02-26T02:00:30;5;5;
74880;PMS5003;63427;49.654;6.596;2023-02-26T02:02:55;6;6;
74880;PMS5003;63427;49.654;6.596;2023-02-26T02:05:21;5;5;
74880;PMS5003;63427;49.654;6.596;2023-02-26T02:07:45;6;5;
74880;PMS5003;63427;49.654;6.596;2023-02-26T02:10:11;6;6;
74880;PMS5003;63427;49.654;6.596;2023-02-26T02:12:37;6;6;
74880;PMS5003;63427;49.654;6.596;2023-02-26T02:15:03;7;6;
74880;PMS5003;63427;49.654;6.596;2023-02-26T02:17:28;7;7;
74880;PMS5003;63427;49.654;6.596;2023-02-26T02:20:00;6;6;
74880;PMS5003;63427;49.654;6.596;2023-02-26T02:22:22;5;5;
74880;PMS5003;63427;49.654;6.596;2023-02-26T02:24:45;3;3;
74880;PMS5003;63427;49.654;6.596;2023-02-26T02:27:09;6;5;
74880;PMS5003;63427;49.654;6.596;2023-02-26T02:31:59;6;5;
74880;PMS5003;63427;49.654;6.596;2023-02-26T02:34:25;3;3;
74880;PMS5003;63427;49.654;6.596;2023-02-26T02:36:50;5;5;
74880;PMS5003;63427;49.654;6.596;2023-02-26T02:39:14;5;3;
74880;PMS5003;63427;49.654;6.596;2023-02-26T02:41:39;3;3;
74880;PMS5003;63427;49.654;6.596;2023-02-26T02:44:05;5;3;
74880;PMS5003;63427;49.654;6.596;2023-02-26T02:46:30;7;5;
74880;PMS5003;63427;49.654;6.596;2023-02-26T02:48:56;6;6;
74880;PMS5003;63427;49.654;6.596;2023-02-26T02:51:21;5;3;
74880;PMS5003;63427;49.654;6.596;2023-02-26T02:53:46;7;6;
74880;PMS5003;63427;49.654;6.596;2023-02-26T02:56:12;5;3;
74880;PMS5003;63427;49.654;6.596;2023-02-26T02:58:36;6;6;
74880;PMS5003;63427;49.654;6.596;2023-02-26T03:01:02;6;6;
74880;PMS5003;63427;49.654;6.596;2023-02-26T03:03:27;5;5;
74880;PMS5003;63427;49.654;6.596;2023-02-26T03:05:51;7;6;
74880;PMS5003;63427;49.654;6.596;2023-02-26T03:08:23;6;6;
74880;PMS5003;63427;49.654;6.596;2023-02-26T03:10:42;5;5;
74880;PMS5003;63427;49.654;6.596;2023-02-26T03:13:10;5;5;
74880;PMS5003;63427;49.654;6.596;2023-02-26T03:15:34;6;6;
74880;PMS5003;63427;49.654;6.596;2023-02-26T03:17:59;5;5;
74880;PMS5003;63427;49.654;6.596;2023-02-26T03:20:29;7;6;
74880;PMS5003;63427;49.654;6.596;2023-02-26T03:22:50;5;5;
74880;PMS5003;63427;49.654;6.596;2023-02-26T03:25:15;5;5;
74880;PMS5003;63427;49.654;6.596;2023-02-26T03:27:41;6;6;
74880;PMS5003;63427;49.654;6.596;2023-02-26T03:30:05;6;6;
74880;PMS5003;63427;49.654;6.596;2023-02-26T03:32:30;6;6;
74880;PMS5003;63427;49.654;6.596;2023-02-26T03:34:57;6;6;
74880;PMS5003;63427;49.654;6.596;2023-02-26T03:37:21;6;6;
74880;PMS5003;63427;49.654;6.596;2023-02-26T03:39:46;7;7;
74880;PMS5003;63427;49.654;6.596;2023-02-26T03:42:13;12;12;
74880;PMS5003;63427;49.654;6.596;2023-02-26T03:44:36;11;11;
74880;PMS5003;63427;49.654;6.596;2023-02-26T03:47:02;12;12;
74880;PMS5003;63427;49.654;6.596;2023-02-26T03:49:28;19;19;
74880;PMS5003;63427;49.654;6.596;2023-02-26T03:51:51;12;12;
74880;PMS5003;63427;49.654;6.596;2023-02-26T03:54:18;13;12;
74880;PMS5003;63427;49.654;6.596;2023-02-26T03:56:42;12;11;
74880;PMS5003;63427;49.654;6.596;2023-02-26T03:59:07;13;13;
74880;PMS5003;63427;49.654;6.596;2023-02-26T04:01:34;13;13;
74880;PMS5003;63427;49.654;6.596;2023-02-26T04:03:59;12;12;
74880;PMS5003;63427;49.654;6.596;2023-02-26T04:06:23;12;11;
74880;PMS5003;63427;49.654;6.596;2023-02-26T04:08:49;12;12;
74880;PMS5003;63427;49.654;6.596;2023-02-26T04:11:15;12;12;
74880;PMS5003;63427;49.654;6.596;2023-02-26T04:13:39;12;12;
74880;PMS5003;63427;49.654;6.596;2023-02-26T04:16:05;16;12;
74880;PMS5003;63427;49.654;6.596;2023-02-26T04:18:30;11;9;
74880;PMS5003;63427;49.654;6.596;2023-02-26T04:20:56;16;13;
74880;PMS5003;63427;49.654;6.596;2023-02-26T04:23:22;14;13;
74880;PMS5003;63427;49.654;6.596;2023-02-26T04:25:47;16;13;
74880;PMS5003;63427;49.654;6.596;2023-02-26T04:28:12;13;12;
74880;PMS5003;63427;49.654;6.596;2023-02-26T04:30:38;11;11;
74880;PMS5003;63427;49.654;6.596;2023-02-26T04:33:03;11;11;
74880;PMS5003;63427;49.654;6.596;2023-02-26T04:35:29;12;11;
74880;PMS5003;63427;49.654;6.596;2023-02-26T04:37:54;12;12;
74880;PMS5003;63427;49.654;6.596;2023-02-26T04:40:20;16;14;
74880;PMS5003;63427;49.654;6.596;2023-02-26T04:42:45;12;12;
74880;PMS5003;63427;49.654;6.596;2023-02-26T04:45:11;13;11;
74880;PMS5003;63427;49.654;6.596;2023-02-26T04:47:37;18;17;
74880;PMS5003;63427;49.654;6.596;2023-02-26T04:50:02;11;11;
74880;PMS5003;63427;49.654;6.596;2023-02-26T04:52:28;13;13;
74880;PMS5003;63427;49.654;6.596;2023-02-26T04:54:53;11;9;
74880;PMS5003;63427;49.654;6.596;2023-02-26T04:57:18;13;13;
74880;PMS5003;63427;49.654;6.596;2023-02-26T04:59:43;12;11;
74880;PMS5003;63427;49.654;6.596;2023-02-26T05:02:09;9;9;
74880;PMS5003;63427;49.654;6.596;2023-02-26T05:04:34;14;14;
74880;PMS5003;63427;49.654;6.596;2023-02-26T05:07:00;14;14;
74880;PMS5003;63427;49.654;6.596;2023-02-26T05:09:25;9;8;
74880;PMS5003;63427;49.654;6.596;2023-02-26T05:11:50;14;13;
74880;PMS5003;63427;49.654;6.596;2023-02-26T05:14:15;11;11;
74880;PMS5003;63427;49.654;6.596;2023-02-26T05:16:40;9;9;
74880;PMS5003;63427;49.654;6.596;2023-02-26T05:19:06;9;9;
74880;PMS5003;63427;49.654;6.596;2023-02-26T05:21:31;7;7;
74880;PMS5003;63427;49.654;6.596;2023-02-26T05:23:56;8;7;
74880;PMS5003;63427;49.654;6.596;2023-02-26T05:26:21;9;9;
74880;PMS5003;63427;49.654;6.596;2023-02-26T05:28:47;8;8;
74880;PMS5003;63427;49.654;6.596;2023-02-26T05:31:12;11;11;
74880;PMS5003;63427;49.654;6.596;2023-02-26T05:33:38;12;12;
74880;PMS5003;63427;49.654;6.596;2023-02-26T05:36:03;12;11;
74880;PMS5003;63427;49.654;6.596;2023-02-26T05:38:28;8;8;
74880;PMS5003;63427;49.654;6.596;2023-02-26T05:40:55;9;9;
74880;PMS5003;63427;49.654;6.596;2023-02-26T05:43:19;12;12;
74880;PMS5003;63427;49.654;6.596;2023-02-26T05:45:44;12;11;
74880;PMS5003;63427;49.654;6.596;2023-02-26T05:48:09;11;11;
74880;PMS5003;63427;49.654;6.596;2023-02-26T05:50:34;11;11;
74880;PMS5003;63427;49.654;6.596;2023-02-26T05:53:00;12;11;
74880;PMS5003;63427;49.654;6.596;2023-02-26T05:55:25;12;12;
74880;PMS5003;63427;49.654;6.596;2023-02-26T05:57:51;14;13;
74880;PMS5003;63427;49.654;6.596;2023-02-26T06:00:16;11;11;
74880;PMS5003;63427;49.654;6.596;2023-02-26T06:02:42;11;11;
74880;PMS5003;63427;49.654;6.596;2023-02-26T06:05:07;9;9;
74880;PMS5003;63427;49.654;6.596;2023-02-26T06:07:32;11;9;
74880;PMS5003;63427;49.654;6.596;2023-02-26T06:09:58;11;11;
74880;PMS5003;63427;49.654;6.596;2023-02-26T06:12:23;11;11;
74880;PMS5003;63427;49.654;6.596;2023-02-26T06:14:48;11;9;
74880;PMS5003;63427;49.654;6.596;2023-02-26T06:17:14;9;9;
74880;PMS5003;63427;49.654;6.596;2023-02-26T06:19:39;11;11;
74880;PMS5003;63427;49.654;6.596;2023-02-26T06:22:04;11;11;
74880;PMS5003;63427;49.654;6.596;2023-02-26T06:24:30;9;8;
74880;PMS5003;63427;49.654;6.596;2023-02-26T06:26:55;11;9;
74880;PMS5003;63427;49.654;6.596;2023-02-26T06:29:21;9;9;
74880;PMS5003;63427;49.654;6.596;2023-02-26T06:31:46;11;9;
74880;PMS5003;63427;49.654;6.596;2023-02-26T06:34:12;9;9;
74880;PMS5003;63427;49.654;6.596;2023-02-26T06:36:37;8;8;
74880;PMS5003;63427;49.654;6.596;2023-02-26T06:39:03;11;11;
74880;PMS5003;63427;49.654;6.596;2023-02-26T06:41:28;9;8;
74880;PMS5003;63427;49.654;6.596;2023-02-26T06:43:53;12;11;
74880;PMS5003;63427;49.654;6.596;2023-02-26T06:46:19;11;9;
74880;PMS5003;63427;49.654;6.596;2023-02-26T06:48:44;11;11;
74880;PMS5003;63427;49.654;6.596;2023-02-26T06:51:09;15;13;
74880;PMS5003;63427;49.654;6.596;2023-02-26T06:53:35;12;12;
74880;PMS5003;63427;49.654;6.596;2023-02-26T06:56:00;16;13;
74880;PMS5003;63427;49.654;6.596;2023-02-26T06:58:25;12;11;
74880;PMS5003;63427;49.654;6.596;2023-02-26T07:00:51;13;11;
74880;PMS5003;63427;49.654;6.596;2023-02-26T07:03:16;13;13;
74880;PMS5003;63427;49.654;6.596;2023-02-26T07:05:41;11;11;
74880;PMS5003;63427;49.654;6.596;2023-02-26T07:08:06;9;8;
74880;PMS5003;63427;49.654;6.596;2023-02-26T07:10:32;11;11;
74880;PMS5003;63427;49.654;6.596;2023-02-26T07:12:58;11;11;
74880;PMS5003;63427;49.654;6.596;2023-02-26T07:15:23;9;9;
74880;PMS5003;63427;49.654;6.596;2023-02-26T07:17:48;13;13;
74880;PMS5003;63427;49.654;6.596;2023-02-26T07:20:13;12;12;
74880;PMS5003;63427;49.654;6.596;2023-02-26T07:22:39;8;8;
74880;PMS5003;63427;49.654;6.596;2023-02-26T07:25:04;9;9;
74880;PMS5003;63427;49.654;6.596;2023-02-26T07:27:30;6;6;
74880;PMS5003;63427;49.654;6.596;2023-02-26T07:29:55;8;8;
74880;PMS5003;63427;49.654;6.596;2023-02-26T07:32:20;11;11;
74880;PMS5003;63427;49.654;6.596;2023-02-26T07:34:46;9;9;
74880;PMS5003;63427;49.654;6.596;2023-02-26T07:37:11;12;12;
74880;PMS5003;63427;49.654;6.596;2023-02-26T07:39:36;8;8;
74880;PMS5003;63427;49.654;6.596;2023-02-26T07:42:01;12;11;
74880;PMS5003;63427;49.654;6.596;2023-02-26T07:44:27;8;8;
74880;PMS5003;63427;49.654;6.596;2023-02-26T07:46:52;8;8;
74880;PMS5003;63427;49.654;6.596;2023-02-26T07:49:17;8;8;
74880;PMS5003;63427;49.654;6.596;2023-02-26T07:51:47;13;12;
74880;PMS5003;63427;49.654;6.596;2023-02-26T07:54:07;18;18;
74880;PMS5003;63427;49.654;6.596;2023-02-26T07:56:32;12;12;
74880;PMS5003;63427;49.654;6.596;2023-02-26T07:58:58;13;13;
74880;PMS5003;63427;49.654;6.596;2023-02-26T08:01:23;9;9;
74880;PMS5003;63427;49.654;6.596;2023-02-26T08:03:48;17;15;
74880;PMS5003;63427;49.654;6.596;2023-02-26T08:06:14;11;11;
74880;PMS5003;63427;49.654;6.596;2023-02-26T08:08:40;15;14;
74880;PMS5003;63427;49.654;6.596;2023-02-26T08:11:04;17;15;
74880;PMS5003;63427;49.654;6.596;2023-02-26T08:13:29;11;9;
74880;PMS5003;63427;49.654;6.596;2023-02-26T08:15:54;9;9;
74880;PMS5003;63427;49.654;6.596;2023-02-26T08:18:19;12;12;
74880;PMS5003;63427;49.654;6.596;2023-02-26T08:20:45;10;10;
74880;PMS5003;63427;49.654;6.596;2023-02-26T08:23:11;13;13;
74880;PMS5003;63427;49.654;6.596;2023-02-26T08:25:35;13;12;
74880;PMS5003;63427;49.654;6.596;2023-02-26T08:28:01;14;14;
74880;PMS5003;63427;49.654;6.596;2023-02-26T08:30:27;13;13;
74880;PMS5003;63427;49.654;6.596;2023-02-26T08:32:52;12;12;
74880;PMS5003;63427;49.654;6.596;2023-02-26T08:35:17;10;9;
74880;PMS5003;63427;49.654;6.596;2023-02-26T08:37:43;15;14;
74880;PMS5003;63427;49.654;6.596;2023-02-26T08:40:08;10;9;
74880;PMS5003;63427;49.654;6.596;2023-02-26T08:42:34;22;22;
74880;PMS5003;63427;49.654;6.596;2023-02-26T08:44:59;10;8;
74880;PMS5003;63427;49.654;6.596;2023-02-26T08:47:25;11;11;
74880;PMS5003;63427;49.654;6.596;2023-02-26T08:49:50;11;11;
74880;PMS5003;63427;49.654;6.596;2023-02-26T08:52:15;9;8;
74880;PMS5003;63427;49.654;6.596;2023-02-26T08:54:40;11;11;
74880;PMS5003;63427;49.654;6.596;2023-02-26T08:57:05;9;9;
74880;PMS5003;63427;49.654;6.596;2023-02-26T08:59:31;14;14;
74880;PMS5003;63427;49.654;6.596;2023-02-26T09:01:56;9;9;
74880;PMS5003;63427;49.654;6.596;2023-02-26T09:04:22;8;8;
74880;PMS5003;63427;49.654;6.596;2023-02-26T09:06:47;9;9;
74880;PMS5003;63427;49.654;6.596;2023-02-26T09:09:12;8;8;
74880;PMS5003;63427;49.654;6.596;2023-02-26T09:11:37;11;10;
74880;PMS5003;63427;49.654;6.596;2023-02-26T09:14:02;7;7;
74880;PMS5003;63427;49.654;6.596;2023-02-26T09:16:28;9;8;
74880;PMS5003;63427;49.654;6.596;2023-02-26T09:18:53;10;10;
74880;PMS5003;63427;49.654;6.596;2023-02-26T09:21:18;11;10;
74880;PMS5003;63427;49.654;6.596;2023-02-26T09:23:43;12;12;
74880;PMS5003;63427;49.654;6.596;2023-02-26T09:26:08;30;22;
74880;PMS5003;63427;49.654;6.596;2023-02-26T09:28:34;27;26;
74880;PMS5003;63427;49.654;6.596;2023-02-26T09:30:59;32;29;
74880;PMS5003;63427;49.654;6.596;2023-02-26T09:33:24;36;36;
74880;PMS5003;63427;49.654;6.596;2023-02-26T09:35:50;10;10;
74880;PMS5003;63427;49.654;6.596;2023-02-26T09:38:15;15;15;
74880;PMS5003;63427;49.654;6.596;2023-02-26T09:40:42;9;9;
74880;PMS5003;63427;49.654;6.596;2023-02-26T09:43:14;8;8;
74880;PMS5003;63427;49.654;6.596;2023-02-26T09:45:32;6;5;
74880;PMS5003;63427;49.654;6.596;2023-02-26T09:47:56;7;7;
74880;PMS5003;63427;49.654;6.596;2023-02-26T09:50:21;9;9;
74880;PMS5003;63427;49.654;6.596;2023-02-26T09:52:48;7;7;
74880;PMS5003;63427;49.654;6.596;2023-02-26T09:55:13;9;9;
74880;PMS5003;63427;49.654;6.596;2023-02-26T09:57:37;9;9;
74880;PMS5003;63427;49.654;6.596;2023-02-26T10:00:02;7;7;
74880;PMS5003;63427;49.654;6.596;2023-02-26T10:02:31;5;5;
74880;PMS5003;63427;49.654;6.596;2023-02-26T10:04:55;5;5;
74880;PMS5003;63427;49.654;6.596;2023-02-26T10:07:21;10;10;
74880;PMS5003;63427;49.654;6.596;2023-02-26T10:09:49;4;4;
74880;PMS5003;63427;49.654;6.596;2023-02-26T10:12:11;9;8;
74880;PMS5003;63427;49.654;6.596;2023-02-26T10:14:36;6;6;
74880;PMS5003;63427;49.654;6.596;2023-02-26T10:17:02;7;7;
74880;PMS5003;63427;49.654;6.596;2023-02-26T10:19:28;6;6;
74880;PMS5003;63427;49.654;6.596;2023-02-26T10:21:53;3;3;
74880;PMS5003;63427;49.654;6.596;2023-02-26T10:24:20;5;5;
74880;PMS5003;63427;49.654;6.596;2023-02-26T10:26:45;3;3;
74880;PMS5003;63427;49.654;6.596;2023-02-26T10:29:14;16;16;
74880;PMS5003;63427;49.654;6.596;2023-02-26T10:31:37;6;5;
74880;PMS5003;63427;49.654;6.596;2023-02-26T10:34:06;6;5;
74880;PMS5003;63427;49.654;6.596;2023-02-26T10:36:29;4;4;
74880;PMS5003;63427;49.654;6.596;2023-02-26T10:38:56;6;6;
74880;PMS5003;63427;49.654;6.596;2023-02-26T10:41:21;5;5;
74880;PMS5003;63427;49.654;6.596;2023-02-26T10:43:47;7;7;
74880;PMS5003;63427;49.654;6.596;2023-02-26T10:46:16;9;9;
74880;PMS5003;63427;49.654;6.596;2023-02-26T10:48:41;6;6;
74880;PMS5003;63427;49.654;6.596;2023-02-26T10:51:07;7;7;
74880;PMS5003;63427;49.654;6.596;2023-02-26T10:53:29;4;4;
74880;PMS5003;63427;49.654;6.596;2023-02-26T10:55:55;5;5;
74880;PMS5003;63427;49.654;6.596;2023-02-26T10:58:21;4;3;
74880;PMS5003;63427;49.654;6.596;2023-02-26T11:00:47;5;5;
74880;PMS5003;63427;49.654;6.596;2023-02-26T11:03:13;6;6;
74880;PMS5003;63427;49.654;6.596;2023-02-26T11:05:37;7;5;
74880;PMS5003;63427;49.654;6.596;2023-02-26T11:08:03;5;4;
74880;PMS5003;63427;49.654;6.596;2023-02-26T11:10:33;7;7;
74880;PMS5003;63427;49.654;6.596;2023-02-26T11:12:55;4;4;
74880;PMS5003;63427;49.654;6.596;2023-02-26T11:15:21;7;7;
74880;PMS5003;63427;49.654;6.596;2023-02-26T11:17:46;6;6;
74880;PMS5003;63427;49.654;6.596;2023-02-26T11:20:13;5;5;
74880;PMS5003;63427;49.654;6.596;2023-02-26T11:22:38;6;5;
74880;PMS5003;63427;49.654;6.596;2023-02-26T11:25:04;5;5;
74880;PMS5003;63427;49.654;6.596;2023-02-26T11:27:58;6;5;
74880;PMS5003;63427;49.654;6.596;2023-02-26T11:39:38;5;4;
74880;PMS5003;63427;49.654;6.596;2023-02-26T11:42:04;10;10;
74880;PMS5003;63427;49.654;6.596;2023-02-26T11:44:32;9;9;
74880;PMS5003;63427;49.654;6.596;2023-02-26T11:46:56;10;10;
74880;PMS5003;63427;49.654;6.596;2023-02-26T11:49:22;4;4;
74880;PMS5003;63427;49.654;6.596;2023-02-26T11:56:40;4;4;
74880;PMS5003;63427;49.654;6.596;2023-02-26T11:59:06;6;6;
74880;PMS5003;63427;49.654;6.596;2023-02-26T12:01:30;3;3;
74880;PMS5003;63427;49.654;6.596;2023-02-26T12:03:58;4;4;
74880;PMS5003;63427;49.654;6.596;2023-02-26T12:06:26;3;3;
74880;PMS5003;63427;49.654;6.596;2023-02-26T12:08:48;3;3;
74880;PMS5003;63427;49.654;6.596;2023-02-26T12:11:27;7;7;
74880;PMS5003;63427;49.654;6.596;2023-02-26T12:13:40;7;7;
74880;PMS5003;63427;49.654;6.596;2023-02-26T12:16:06;9;8;
74880;PMS5003;63427;49.654;6.596;2023-02-26T12:18:34;7;5;
74880;PMS5003;63427;49.654;6.596;2023-02-26T12:21:00;4;4;
74880;PMS5003;63427;49.654;6.596;2023-02-26T12:23:29;4;4;
74880;PMS5003;63427;49.654;6.596;2023-02-26T12:25:52;7;7;
74880;PMS5003;63427;49.654;6.596;2023-02-26T12:28:20;6;6;
74880;PMS5003;63427;49.654;6.596;2023-02-26T12:30:44;7;7;
74880;PMS5003;63427;49.654;6.596;2023-02-26T12:33:11;8;8;
74880;PMS5003;63427;49.654;6.596;2023-02-26T12:35:38;8;6;
74880;PMS5003;63427;49.654;6.596;2023-02-26T12:38:00;2;2;
74880;PMS5003;63427;49.654;6.596;2023-02-26T12:40:31;3;2;
74880;PMS5003;63427;49.654;6.596;2023-02-26T12:42:50;5;5;
74880;PMS5003;63427;49.654;6.596;2023-02-26T12:45:19;4;3;
74880;PMS5003;63427;49.654;6.596;2023-02-26T12:47:42;3;2;
74880;PMS5003;63427;49.654;6.596;2023-02-26T12:50:07;2;2;
74880;PMS5003;63427;49.654;6.596;2023-02-26T12:52:37;3;3;
74880;PMS5003;63427;49.654;6.596;2023-02-26T12:55:02;4;3;
74880;PMS5003;63427;49.654;6.596;2023-02-26T12:57:32;4;4;
74880;PMS5003;63427;49.654;6.596;2023-02-26T12:59:52;3;3;
74880;PMS5003;63427;49.654;6.596;2023-02-26T13:04:43;27;27;
74880;PMS5003;63427;49.654;6.596;2023-02-26T13:07:08;10;10;
74880;PMS5003;63427;49.654;6.596;2023-02-26T13:09:32;18;17;
74880;PMS5003;63427;49.654;6.596;2023-02-26T13:11:59;23;20;
74880;PMS5003;63427;49.654;6.596;2023-02-26T13:14:24;7;7;
74880;PMS5003;63427;49.654;6.596;2023-02-26T13:16:47;4;4;
74880;PMS5003;63427;49.654;6.596;2023-02-26T13:19:16;5;4;
74880;PMS5003;63427;49.654;6.596;2023-02-26T13:21:38;7;7;
74880;PMS5003;63427;49.654;6.596;2023-02-26T13:24:04;3;3;
74880;PMS5003;63427;49.654;6.596;2023-02-26T13:26:29;5;5;
74880;PMS5003;63427;49.654;6.596;2023-02-26T13:28:56;2;2;
74880;PMS5003;63427;49.654;6.596;2023-02-26T13:31:22;3;3;
74880;PMS5003;63427;49.654;6.596;2023-02-26T13:33:47;4;4;
74880;PMS5003;63427;49.654;6.596;2023-02-26T13:36:12;4;3;
74880;PMS5003;63427;49.654;6.596;2023-02-26T13:38:42;14;14;
74880;PMS5003;63427;49.654;6.596;2023-02-26T13:41:06;2;2;
74880;PMS5003;63427;49.654;6.596;2023-02-26T13:43:34;3;3;
74880;PMS5003;63427;49.654;6.596;2023-02-26T13:45:57;2;2;
74880;PMS5003;63427;49.654;6.596;2023-02-26T13:48:21;14;13;
74880;PMS5003;63427;49.654;6.596;2023-02-26T13:50:49;6;6;
74880;PMS5003;63427;49.654;6.596;2023-02-26T13:55:39;9;9;
74880;PMS5003;63427;49.654;6.596;2023-02-26T14:00:29;4;4;
74880;PMS5003;63427;49.654;6.596;2023-02-26T14:02:53;2;2;
74880;PMS5003;63427;49.654;6.596;2023-02-26T14:05:29;7;7;
74880;PMS5003;63427;49.654;6.596;2023-02-26T14:07:45;4;4;
74880;PMS5003;63427;49.654;6.596;2023-02-26T14:10:14;2;2;
74880;PMS5003;63427;49.654;6.596;2023-02-26T14:12:36;5;4;
74880;PMS5003;63427;49.654;6.596;2023-02-26T14:17:28;3;3;
74880;PMS5003;63427;49.654;6.596;2023-02-26T14:22:19;3;3;
74880;PMS5003;63427;49.654;6.596;2023-02-26T14:24:44;6;5;
74880;PMS5003;63427;49.654;6.596;2023-02-26T14:29:37;2;2;
74880;PMS5003;63427;49.654;6.596;2023-02-26T14:32:03;3;3;
74880;PMS5003;63427;49.654;6.596;2023-02-26T14:34:26;3;3;
74880;PMS5003;63427;49.654;6.596;2023-02-26T14:36:51;3;3;
74880;PMS5003;63427;49.654;6.596;2023-02-26T14:41:42;2;2;
74880;PMS5003;63427;49.654;6.596;2023-02-26T14:44:10;3;3;
74880;PMS5003;63427;49.654;6.596;2023-02-26T14:46:33;2;2;
74880;PMS5003;63427;49.654;6.596;2023-02-26T14:48:59;5;4;
74880;PMS5003;63427;49.654;6.596;2023-02-26T14:51:28;2;2;
74880;PMS5003;63427;49.654;6.596;2023-02-26T14:56:17;5;5;
74880;PMS5003;63427;49.654;6.596;2023-02-26T14:58:47;4;4;
74880;PMS5003;63427;49.654;6.596;2023-02-26T15:01:12;3;3;
74880;PMS5003;63427;49.654;6.596;2023-02-26T15:10:55;5;5;
74880;PMS5003;63427;49.654;6.596;2023-02-26T15:13:21;6;6;
74880;PMS5003;63427;49.654;6.596;2023-02-26T15:15:45;5;5;
74880;PMS5003;63427;49.654;6.596;2023-02-26T15:18:12;5;5;
74880;PMS5003;63427;49.654;6.596;2023-02-26T15:20:35;8;8;
74880;PMS5003;63427;49.654;6.596;2023-02-26T15:23:04;2;2;
74880;PMS5003;63427;49.654;6.596;2023-02-26T15:25:27;3;3;
74880;PMS5003;63427;49.654;6.596;2023-02-26T15:27:50;2;2;
74880;PMS5003;63427;49.654;6.596;2023-02-26T15:30:16;5;5;
74880;PMS5003;63427;49.654;6.596;2023-02-26T15:32:42;5;4;
74880;PMS5003;63427;49.654;6.596;2023-02-26T15:35:13;4;4;
74880;PMS5003;63427;49.654;6.596;2023-02-26T15:37:34;5;5;
74880;PMS5003;63427;49.654;6.596;2023-02-26T15:39:59;5;5;
74880;PMS5003;63427;49.654;6.596;2023-02-26T15:42:26;6;6;
74880;PMS5003;63427;49.654;6.596;2023-02-26T15:44:58;9;8;
74880;PMS5003;63427;49.654;6.596;2023-02-26T15:47:17;15;15;
74880;PMS5003;63427;49.654;6.596;2023-02-26T15:49:44;7;6;
74880;PMS5003;63427;49.654;6.596;2023-02-26T15:52:11;5;4;
74880;PMS5003;63427;49.654;6.596;2023-02-26T15:54:36;5;5;
74880;PMS5003;63427;49.654;6.596;2023-02-26T15:57:00;8;8;
74880;PMS5003;63427;49.654;6.596;2023-02-26T15:59:26;5;4;
74880;PMS5003;63427;49.654;6.596;2023-02-26T16:01:52;10;10;
74880;PMS5003;63427;49.654;6.596;2023-02-26T16:04:18;5;5;
74880;PMS5003;63427;49.654;6.596;2023-02-26T16:06:43;6;6;
74880;PMS5003;63427;49.654;6.596;2023-02-26T16:09:14;7;7;
74880;PMS5003;63427;49.654;6.596;2023-02-26T16:11:35;5;5;
74880;PMS5003;63427;49.654;6.596;2023-02-26T16:14:00;8;8;
74880;PMS5003;63427;49.654;6.596;2023-02-26T16:16:26;4;4;
74880;PMS5003;63427;49.654;6.596;2023-02-26T16:18:52;4;4;
74880;PMS5003;63427;49.654;6.596;2023-02-26T16:21:20;7;7;
74880;PMS5003;63427;49.654;6.596;2023-02-26T16:23:44;3;3;
74880;PMS5003;63427;49.654;6.596;2023-02-26T16:26:12;4;4;
74880;PMS5003;63427;49.654;6.596;2023-02-26T16:28:36;4;4;
74880;PMS5003;63427;49.654;6.596;2023-02-26T16:31:01;6;5;
74880;PMS5003;63427;49.654;6.596;2023-02-26T16:33:26;5;5;
74880;PMS5003;63427;49.654;6.596;2023-02-26T16:35:53;5;5;
74880;PMS5003;63427;49.654;6.596;2023-02-26T16:38:20;5;5;
74880;PMS5003;63427;49.654;6.596;2023-02-26T16:40:43;6;6;
74880;PMS5003;63427;49.654;6.596;2023-02-26T16:45:42;5;5;
74880;PMS5003;63427;49.654;6.596;2023-02-26T16:48:02;4;4;
74880;PMS5003;63427;49.654;6.596;2023-02-26T16:50:28;2;2;
74880;PMS5003;63427;49.654;6.596;2023-02-26T16:52:56;4;4;
74880;PMS5003;63427;49.654;6.596;2023-02-26T16:55:18;4;4;
74880;PMS5003;63427;49.654;6.596;2023-02-26T16:57:45;11;11;
74880;PMS5003;63427;49.654;6.596;2023-02-26T17:00:12;4;4;
74880;PMS5003;63427;49.654;6.596;2023-02-26T17:02:36;4;4;
74880;PMS5003;63427;49.654;6.596;2023-02-26T17:05:13;7;7;
74880;PMS5003;63427;49.654;6.596;2023-02-26T17:07:29;4;4;
74880;PMS5003;63427;49.654;6.596;2023-02-26T17:09:54;6;6;
74880;PMS5003;63427;49.654;6.596;2023-02-26T17:12:20;3;3;
74880;PMS5003;63427;49.654;6.596;2023-02-26T17:14:44;5;5;